Bungo Princess — 3FXV8 — position and weather

sailwx.info

Track history (hours):
 
Tides and Currents Weather Stations Pressure Air Temp Water Temp Dewpoint Dewpoint Depression Visibility Wind Speed Wind Dir Waves Ship Positions

Bungo Princess

Last reported at 2014-Oct-26 19:33 UTC. Time now 2014-Oct-31 11:36 UTC.
Position N 31°21' E 121°40'.

Length 103 m; draft 5.6 m.

Type: Cargo ship. MMSI: 355091000.

Date/timePositionNaut miles runAvg speedWind from/ knotsBaromVisibWave heightAir tempDewpointWater temp
2014-Oct-26 19:33N 31°21' E 121°40'9 8.6
2014-Oct-26 18:32N 31°23' E 121°30'1 0.8
2014-Oct-26 17:28N 31°22' E 121°30'0 0.0
2014-Oct-26 16:22N 31°22' E 121°30'0 0.0
2014-Oct-26 15:22N 31°22' E 121°30'0 0.0
2014-Oct-26 14:28N 31°22' E 121°30'0 0.0
2014-Oct-26 13:10N 31°22' E 121°30'0 0.0
2014-Oct-26 12:28N 31°22' E 121°30'0 0.0
2014-Oct-26 11:22N 31°22' E 121°30'0 0.0
2014-Oct-26 10:28N 31°22' E 121°30'0 0.0
2014-Oct-26 09:17N 31°22' E 121°30'2 2.2
2014-Oct-26 08:33N 31°23' E 121°30'3 2.9
2014-Oct-26 07:33N 31°24' E 121°34'7 6.8
2014-Oct-26 06:33N 31°21' E 121°41'  
Track history (hours):
 
Tides and Currents Weather Stations Pressure Air Temp Water Temp Dewpoint Dewpoint Depression Visibility Wind Speed Wind Dir Waves Ship Positions

Bungo Princess

Last reported at 2014-Oct-26 19:33 UTC. Time now 2014-Oct-31 11:36 UTC.
Position N 31°21' E 121°40'.

Length 103 m; draft 5.6 m.

Type: Cargo ship. MMSI: 355091000.

Date/timePositionNaut miles runAvg speedWind from/ knotsBaromVisibWave heightAir tempDewpointWater temp
2014-Oct-26 19:33N 31°21' E 121°40'9 8.6
2014-Oct-26 18:32N 31°23' E 121°30'1 0.8
2014-Oct-26 17:28N 31°22' E 121°30'0 0.0
2014-Oct-26 16:22N 31°22' E 121°30'0 0.0
2014-Oct-26 15:22N 31°22' E 121°30'0 0.0
2014-Oct-26 14:28N 31°22' E 121°30'0 0.0
2014-Oct-26 13:10N 31°22' E 121°30'0 0.0
2014-Oct-26 12:28N 31°22' E 121°30'0 0.0
2014-Oct-26 11:22N 31°22' E 121°30'0 0.0
2014-Oct-26 10:28N 31°22' E 121°30'0 0.0
2014-Oct-26 09:17N 31°22' E 121°30'2 2.2
2014-Oct-26 08:33N 31°23' E 121°30'3 2.9
2014-Oct-26 07:33N 31°24' E 121°34'7 6.8
2014-Oct-26 06:33N 31°21' E 121°41'  

Dump ship's entire track history